sensor_id;sensor_type;location;lat;lon;timestamp;P1;durP1;ratioP1;P2;durP2;ratioP2
52734;SDS011;38631;47.572;10.704;2023-02-01T00:01:25;5.22;;;3.35;;
52734;SDS011;38631;47.572;10.704;2023-02-01T00:03:50;4.30;;;3.30;;
52734;SDS011;38631;47.572;10.704;2023-02-01T00:06:16;6.30;;;3.58;;
52734;SDS011;38631;47.572;10.704;2023-02-01T00:08:41;13.38;;;6.57;;
52734;SDS011;38631;47.572;10.704;2023-02-01T00:11:08;10.23;;;4.38;;
52734;SDS011;38631;47.572;10.704;2023-02-01T00:13:36;6.88;;;3.95;;
52734;SDS011;38631;47.572;10.704;2023-02-01T00:16:08;10.20;;;4.78;;
52734;SDS011;38631;47.572;10.704;2023-02-01T00:21:13;6.15;;;4.05;;
52734;SDS011;38631;47.572;10.704;2023-02-01T00:23:39;6.10;;;3.35;;
52734;SDS011;38631;47.572;10.704;2023-02-01T00:26:06;6.18;;;3.63;;
52734;SDS011;38631;47.572;10.704;2023-02-01T00:28:32;6.18;;;3.63;;
52734;SDS011;38631;47.572;10.704;2023-02-01T00:30:58;6.78;;;3.40;;
52734;SDS011;38631;47.572;10.704;2023-02-01T00:33:26;5.63;;;3.70;;
52734;SDS011;38631;47.572;10.704;2023-02-01T00:35:58;5.00;;;2.90;;
52734;SDS011;38631;47.572;10.704;2023-02-01T00:38:25;5.00;;;3.38;;
52734;SDS011;38631;47.572;10.704;2023-02-01T00:40:52;6.47;;;3.50;;
52734;SDS011;38631;47.572;10.704;2023-02-01T00:43:17;7.93;;;3.90;;
52734;SDS011;38631;47.572;10.704;2023-02-01T00:45:42;6.25;;;2.90;;
52734;SDS011;38631;47.572;10.704;2023-02-01T00:48:09;6.72;;;3.33;;
52734;SDS011;38631;47.572;10.704;2023-02-01T00:50:35;4.85;;;3.28;;
52734;SDS011;38631;47.572;10.704;2023-02-01T00:53:00;9.90;;;3.85;;
52734;SDS011;38631;47.572;10.704;2023-02-01T00:55:25;5.43;;;3.47;;
52734;SDS011;38631;47.572;10.704;2023-02-01T00:57:51;5.10;;;3.42;;
52734;SDS011;38631;47.572;10.704;2023-02-01T01:00:16;4.75;;;3.20;;
52734;SDS011;38631;47.572;10.704;2023-02-01T01:02:42;5.93;;;3.45;;
52734;SDS011;38631;47.572;10.704;2023-02-01T01:05:07;5.25;;;3.65;;
52734;SDS011;38631;47.572;10.704;2023-02-01T01:07:32;7.45;;;3.40;;
52734;SDS011;38631;47.572;10.704;2023-02-01T01:09:58;5.15;;;3.33;;
52734;SDS011;38631;47.572;10.704;2023-02-01T01:12:23;6.35;;;4.03;;
52734;SDS011;38631;47.572;10.704;2023-02-01T01:14:49;4.88;;;3.13;;
52734;SDS011;38631;47.572;10.704;2023-02-01T01:17:14;4.88;;;3.70;;
52734;SDS011;38631;47.572;10.704;2023-02-01T01:19:39;3.83;;;2.85;;
52734;SDS011;38631;47.572;10.704;2023-02-01T01:22:05;4.63;;;3.10;;
52734;SDS011;38631;47.572;10.704;2023-02-01T01:24:30;5.07;;;3.38;;
52734;SDS011;38631;47.572;10.704;2023-02-01T01:26:55;4.13;;;2.90;;
52734;SDS011;38631;47.572;10.704;2023-02-01T01:29:21;6.03;;;3.40;;
52734;SDS011;38631;47.572;10.704;2023-02-01T01:31:46;8.30;;;3.22;;
52734;SDS011;38631;47.572;10.704;2023-02-01T01:34:11;5.63;;;3.22;;
52734;SDS011;38631;47.572;10.704;2023-02-01T01:36:37;4.70;;;3.60;;
52734;SDS011;38631;47.572;10.704;2023-02-01T01:39:02;6.00;;;3.78;;
52734;SDS011;38631;47.572;10.704;2023-02-01T01:41:29;5.63;;;3.40;;
52734;SDS011;38631;47.572;10.704;2023-02-01T01:46:22;4.00;;;2.97;;
52734;SDS011;38631;47.572;10.704;2023-02-01T01:48:51;4.78;;;3.25;;
52734;SDS011;38631;47.572;10.704;2023-02-01T01:51:30;5.85;;;3.17;;
52734;SDS011;38631;47.572;10.704;2023-02-01T01:56:30;4.65;;;3.10;;
52734;SDS011;38631;47.572;10.704;2023-02-01T01:58:57;5.10;;;2.63;;
52734;SDS011;38631;47.572;10.704;2023-02-01T02:01:23;7.47;;;4.05;;
52734;SDS011;38631;47.572;10.704;2023-02-01T02:03:49;4.18;;;3.35;;
52734;SDS011;38631;47.572;10.704;2023-02-01T02:06:36;5.13;;;3.10;;
52734;SDS011;38631;47.572;10.704;2023-02-01T02:09:08;6.47;;;3.60;;
52734;SDS011;38631;47.572;10.704;2023-02-01T02:11:34;4.03;;;3.00;;
52734;SDS011;38631;47.572;10.704;2023-02-01T02:13:59;5.28;;;2.88;;
52734;SDS011;38631;47.572;10.704;2023-02-01T02:25:02;4.95;;;3.35;;
52734;SDS011;38631;47.572;10.704;2023-02-01T02:30:39;4.70;;;3.00;;
52734;SDS011;38631;47.572;10.704;2023-02-01T02:44:26;4.85;;;2.75;;
52734;SDS011;38631;47.572;10.704;2023-02-01T02:47:21;4.15;;;2.75;;
52734;SDS011;38631;47.572;10.704;2023-02-01T02:49:54;4.65;;;2.67;;
52734;SDS011;38631;47.572;10.704;2023-02-01T02:52:56;4.68;;;2.78;;
52734;SDS011;38631;47.572;10.704;2023-02-01T02:55:45;4.47;;;2.70;;
52734;SDS011;38631;47.572;10.704;2023-02-01T02:58:11;3.17;;;2.35;;
52734;SDS011;38631;47.572;10.704;2023-02-01T03:00:57;3.47;;;2.30;;
52734;SDS011;38631;47.572;10.704;2023-02-01T03:03:41;4.75;;;2.63;;
52734;SDS011;38631;47.572;10.704;2023-02-01T03:06:33;3.80;;;2.20;;
52734;SDS011;38631;47.572;10.704;2023-02-01T03:08:59;4.30;;;2.53;;
52734;SDS011;38631;47.572;10.704;2023-02-01T03:11:29;2.83;;;2.10;;
52734;SDS011;38631;47.572;10.704;2023-02-01T03:14:16;3.47;;;2.03;;
52734;SDS011;38631;47.572;10.704;2023-02-01T03:21:55;4.10;;;2.53;;
52734;SDS011;38631;47.572;10.704;2023-02-01T03:24:25;3.53;;;2.30;;
52734;SDS011;38631;47.572;10.704;2023-02-01T03:27:17;6.25;;;2.72;;
52734;SDS011;38631;47.572;10.704;2023-02-01T03:29:54;4.18;;;2.30;;
52734;SDS011;38631;47.572;10.704;2023-02-01T03:32:26;3.92;;;2.45;;
52734;SDS011;38631;47.572;10.704;2023-02-01T03:34:52;2.85;;;2.20;;
52734;SDS011;38631;47.572;10.704;2023-02-01T03:37:25;4.78;;;2.42;;
52734;SDS011;38631;47.572;10.704;2023-02-01T03:40:03;4.05;;;2.30;;
52734;SDS011;38631;47.572;10.704;2023-02-01T03:42:40;3.55;;;1.67;;
52734;SDS011;38631;47.572;10.704;2023-02-01T03:45:26;5.13;;;2.47;;
52734;SDS011;38631;47.572;10.704;2023-02-01T03:47:56;4.13;;;2.20;;
52734;SDS011;38631;47.572;10.704;2023-02-01T03:50:25;3.15;;;2.00;;
52734;SDS011;38631;47.572;10.704;2023-02-01T03:52:54;4.57;;;2.42;;
52734;SDS011;38631;47.572;10.704;2023-02-01T03:55:24;3.55;;;2.20;;
52734;SDS011;38631;47.572;10.704;2023-02-01T04:00:46;2.45;;;2.15;;
52734;SDS011;38631;47.572;10.704;2023-02-01T04:03:25;3.85;;;2.00;;
52734;SDS011;38631;47.572;10.704;2023-02-01T04:05:52;2.90;;;2.08;;
52734;SDS011;38631;47.572;10.704;2023-02-01T04:08:18;4.82;;;2.30;;
52734;SDS011;38631;47.572;10.704;2023-02-01T04:10:44;3.20;;;1.80;;
52734;SDS011;38631;47.572;10.704;2023-02-01T04:13:10;3.45;;;2.45;;
52734;SDS011;38631;47.572;10.704;2023-02-01T04:15:36;3.05;;;1.90;;
52734;SDS011;38631;47.572;10.704;2023-02-01T04:18:01;2.75;;;1.83;;
52734;SDS011;38631;47.572;10.704;2023-02-01T04:20:26;4.30;;;1.95;;
52734;SDS011;38631;47.572;10.704;2023-02-01T04:22:52;3.30;;;1.85;;
52734;SDS011;38631;47.572;10.704;2023-02-01T04:25:18;3.35;;;1.98;;
52734;SDS011;38631;47.572;10.704;2023-02-01T04:27:43;3.67;;;1.98;;
52734;SDS011;38631;47.572;10.704;2023-02-01T04:30:09;4.70;;;2.20;;
52734;SDS011;38631;47.572;10.704;2023-02-01T04:32:36;3.92;;;1.80;;
52734;SDS011;38631;47.572;10.704;2023-02-01T04:35:02;4.00;;;2.25;;
52734;SDS011;38631;47.572;10.704;2023-02-01T04:37:27;3.13;;;1.63;;
52734;SDS011;38631;47.572;10.704;2023-02-01T04:39:53;2.78;;;1.80;;
52734;SDS011;38631;47.572;10.704;2023-02-01T04:42:19;10.50;;;6.28;;
52734;SDS011;38631;47.572;10.704;2023-02-01T04:44:45;4.22;;;2.55;;
52734;SDS011;38631;47.572;10.704;2023-02-01T04:47:10;3.80;;;2.53;;
52734;SDS011;38631;47.572;10.704;2023-02-01T04:49:35;3.67;;;2.00;;
52734;SDS011;38631;47.572;10.704;2023-02-01T04:52:01;3.40;;;1.73;;
52734;SDS011;38631;47.572;10.704;2023-02-01T04:54:26;2.72;;;2.00;;
52734;SDS011;38631;47.572;10.704;2023-02-01T04:56:54;2.78;;;2.00;;
52734;SDS011;38631;47.572;10.704;2023-02-01T04:59:19;2.97;;;1.70;;
52734;SDS011;38631;47.572;10.704;2023-02-01T05:01:44;3.30;;;1.75;;
52734;SDS011;38631;47.572;10.704;2023-02-01T05:04:10;2.40;;;1.67;;
52734;SDS011;38631;47.572;10.704;2023-02-01T05:06:35;7.43;;;1.50;;
52734;SDS011;38631;47.572;10.704;2023-02-01T05:09:00;2.38;;;1.27;;
52734;SDS011;38631;47.572;10.704;2023-02-01T05:11:26;3.35;;;1.50;;
52734;SDS011;38631;47.572;10.704;2023-02-01T05:14:10;2.80;;;1.55;;
52734;SDS011;38631;47.572;10.704;2023-02-01T05:16:35;3.42;;;1.58;;
52734;SDS011;38631;47.572;10.704;2023-02-01T05:19:01;2.00;;;1.40;;
52734;SDS011;38631;47.572;10.704;2023-02-01T05:21:26;2.35;;;1.77;;
52734;SDS011;38631;47.572;10.704;2023-02-01T05:23:52;3.83;;;1.20;;
52734;SDS011;38631;47.572;10.704;2023-02-01T05:26:37;1.45;;;1.00;;
52734;SDS011;38631;47.572;10.704;2023-02-01T05:29:04;1.48;;;0.85;;
52734;SDS011;38631;47.572;10.704;2023-02-01T05:31:30;1.48;;;0.90;;
52734;SDS011;38631;47.572;10.704;2023-02-01T05:33:55;1.58;;;0.85;;
52734;SDS011;38631;47.572;10.704;2023-02-01T05:36:21;1.52;;;0.88;;
52734;SDS011;38631;47.572;10.704;2023-02-01T05:38:46;4.93;;;2.67;;
52734;SDS011;38631;47.572;10.704;2023-02-01T05:41:13;2.13;;;1.40;;
52734;SDS011;38631;47.572;10.704;2023-02-01T05:43:38;1.73;;;1.00;;
52734;SDS011;38631;47.572;10.704;2023-02-01T05:46:04;2.55;;;0.98;;
52734;SDS011;38631;47.572;10.704;2023-02-01T05:48:29;1.63;;;1.02;;
52734;SDS011;38631;47.572;10.704;2023-02-01T05:50:54;1.40;;;0.80;;
52734;SDS011;38631;47.572;10.704;2023-02-01T05:53:20;1.73;;;0.98;;
52734;SDS011;38631;47.572;10.704;2023-02-01T05:55:46;0.95;;;0.75;;
52734;SDS011;38631;47.572;10.704;2023-02-01T05:58:12;0.93;;;0.70;;
52734;SDS011;38631;47.572;10.704;2023-02-01T06:00:38;1.23;;;0.85;;
52734;SDS011;38631;47.572;10.704;2023-02-01T06:03:03;2.05;;;0.50;;
52734;SDS011;38631;47.572;10.704;2023-02-01T06:05:29;2.47;;;0.90;;
52734;SDS011;38631;47.572;10.704;2023-02-01T06:08:04;1.40;;;0.75;;
52734;SDS011;38631;47.572;10.704;2023-02-01T06:10:32;1.73;;;1.25;;
52734;SDS011;38631;47.572;10.704;2023-02-01T06:12:57;2.40;;;1.00;;
52734;SDS011;38631;47.572;10.704;2023-02-01T06:15:23;2.50;;;1.40;;
52734;SDS011;38631;47.572;10.704;2023-02-01T06:17:48;2.40;;;0.90;;
52734;SDS011;38631;47.572;10.704;2023-02-01T06:20:26;1.50;;;0.80;;
52734;SDS011;38631;47.572;10.704;2023-02-01T06:22:51;1.50;;;1.00;;
52734;SDS011;38631;47.572;10.704;2023-02-01T06:25:17;1.17;;;0.70;;
52734;SDS011;38631;47.572;10.704;2023-02-01T06:27:43;1.55;;;0.90;;
52734;SDS011;38631;47.572;10.704;2023-02-01T06:30:10;1.52;;;1.15;;
52734;SDS011;38631;47.572;10.704;2023-02-01T06:32:38;1.25;;;0.70;;
52734;SDS011;38631;47.572;10.704;2023-02-01T06:35:04;1.50;;;1.00;;
52734;SDS011;38631;47.572;10.704;2023-02-01T06:37:30;2.28;;;0.90;;
52734;SDS011;38631;47.572;10.704;2023-02-01T06:39:56;1.02;;;0.70;;
52734;SDS011;38631;47.572;10.704;2023-02-01T06:42:21;1.08;;;0.70;;
52734;SDS011;38631;47.572;10.704;2023-02-01T06:44:46;1.35;;;0.75;;
52734;SDS011;38631;47.572;10.704;2023-02-01T06:47:12;0.95;;;0.73;;
52734;SDS011;38631;47.572;10.704;2023-02-01T06:49:37;2.20;;;0.98;;
52734;SDS011;38631;47.572;10.704;2023-02-01T06:52:02;1.83;;;1.20;;
52734;SDS011;38631;47.572;10.704;2023-02-01T06:54:28;1.77;;;1.15;;
52734;SDS011;38631;47.572;10.704;2023-02-01T06:56:54;1.27;;;0.68;;
52734;SDS011;38631;47.572;10.704;2023-02-01T06:59:19;1.48;;;0.98;;
52734;SDS011;38631;47.572;10.704;2023-02-01T07:01:45;2.72;;;0.82;;
52734;SDS011;38631;47.572;10.704;2023-02-01T07:04:11;1.35;;;0.80;;
52734;SDS011;38631;47.572;10.704;2023-02-01T07:06:37;1.35;;;1.10;;
52734;SDS011;38631;47.572;10.704;2023-02-01T07:09:03;2.33;;;1.10;;
52734;SDS011;38631;47.572;10.704;2023-02-01T07:11:28;2.13;;;1.50;;
52734;SDS011;38631;47.572;10.704;2023-02-01T07:13:54;2.60;;;1.25;;
52734;SDS011;38631;47.572;10.704;2023-02-01T07:16:20;1.50;;;1.00;;
52734;SDS011;38631;47.572;10.704;2023-02-01T07:18:45;1.98;;;1.20;;
52734;SDS011;38631;47.572;10.704;2023-02-01T07:21:11;2.08;;;1.00;;
52734;SDS011;38631;47.572;10.704;2023-02-01T07:23:37;1.27;;;0.88;;
52734;SDS011;38631;47.572;10.704;2023-02-01T07:26:04;1.00;;;0.65;;
52734;SDS011;38631;47.572;10.704;2023-02-01T07:28:31;1.80;;;0.80;;
52734;SDS011;38631;47.572;10.704;2023-02-01T07:33:31;1.55;;;1.00;;
52734;SDS011;38631;47.572;10.704;2023-02-01T07:35:56;2.05;;;1.10;;
52734;SDS011;38631;47.572;10.704;2023-02-01T07:38:21;2.40;;;1.10;;
52734;SDS011;38631;47.572;10.704;2023-02-01T07:40:48;1.90;;;1.17;;
52734;SDS011;38631;47.572;10.704;2023-02-01T07:43:14;1.60;;;0.88;;
52734;SDS011;38631;47.572;10.704;2023-02-01T07:45:39;2.33;;;0.82;;
52734;SDS011;38631;47.572;10.704;2023-02-01T07:48:04;1.40;;;0.90;;
52734;SDS011;38631;47.572;10.704;2023-02-01T07:50:30;1.40;;;1.08;;
52734;SDS011;38631;47.572;10.704;2023-02-01T07:52:58;3.63;;;1.20;;
52734;SDS011;38631;47.572;10.704;2023-02-01T07:55:25;2.17;;;1.38;;
52734;SDS011;38631;47.572;10.704;2023-02-01T07:57:51;1.73;;;1.20;;
52734;SDS011;38631;47.572;10.704;2023-02-01T08:00:17;1.70;;;1.23;;
52734;SDS011;38631;47.572;10.704;2023-02-01T08:03:03;1.42;;;1.00;;
52734;SDS011;38631;47.572;10.704;2023-02-01T08:05:28;2.25;;;1.33;;
52734;SDS011;38631;47.572;10.704;2023-02-01T08:07:54;1.80;;;1.15;;
52734;SDS011;38631;47.572;10.704;2023-02-01T08:10:19;1.65;;;0.80;;
52734;SDS011;38631;47.572;10.704;2023-02-01T08:12:45;7.47;;;4.78;;
52734;SDS011;38631;47.572;10.704;2023-02-01T08:15:16;3.03;;;1.83;;
52734;SDS011;38631;47.572;10.704;2023-02-01T08:17:51;1.80;;;1.15;;
52734;SDS011;38631;47.572;10.704;2023-02-01T08:20:17;2.10;;;0.93;;
52734;SDS011;38631;47.572;10.704;2023-02-01T08:22:43;3.05;;;0.90;;
52734;SDS011;38631;47.572;10.704;2023-02-01T08:25:09;1.40;;;0.98;;
52734;SDS011;38631;47.572;10.704;2023-02-01T08:27:35;1.40;;;0.80;;
52734;SDS011;38631;47.572;10.704;2023-02-01T08:30:01;1.30;;;0.82;;
52734;SDS011;38631;47.572;10.704;2023-02-01T08:32:27;2.38;;;1.17;;
52734;SDS011;38631;47.572;10.704;2023-02-01T08:34:53;1.50;;;0.80;;
52734;SDS011;38631;47.572;10.704;2023-02-01T08:37:18;1.23;;;0.90;;
52734;SDS011;38631;47.572;10.704;2023-02-01T08:39:43;1.38;;;0.80;;
52734;SDS011;38631;47.572;10.704;2023-02-01T08:42:10;1.10;;;0.70;;
52734;SDS011;38631;47.572;10.704;2023-02-01T08:44:54;2.65;;;0.70;;
52734;SDS011;38631;47.572;10.704;2023-02-01T08:47:20;1.38;;;0.60;;
52734;SDS011;38631;47.572;10.704;2023-02-01T08:49:46;1.35;;;0.82;;
52734;SDS011;38631;47.572;10.704;2023-02-01T08:52:11;0.75;;;0.50;;
52734;SDS011;38631;47.572;10.704;2023-02-01T08:54:36;4.05;;;0.80;;
52734;SDS011;38631;47.572;10.704;2023-02-01T08:57:02;1.38;;;0.77;;
52734;SDS011;38631;47.572;10.704;2023-02-01T08:59:28;1.23;;;0.80;;
52734;SDS011;38631;47.572;10.704;2023-02-01T09:01:54;1.27;;;0.80;;
52734;SDS011;38631;47.572;10.704;2023-02-01T09:04:20;20.25;;;10.80;;
52734;SDS011;38631;47.572;10.704;2023-02-01T09:06:45;2.05;;;1.27;;
52734;SDS011;38631;47.572;10.704;2023-02-01T09:09:11;1.48;;;0.85;;
52734;SDS011;38631;47.572;10.704;2023-02-01T09:11:36;1.95;;;0.55;;
52734;SDS011;38631;47.572;10.704;2023-02-01T09:14:01;1.05;;;0.57;;
52734;SDS011;38631;47.572;10.704;2023-02-01T09:16:27;1.02;;;0.60;;
52734;SDS011;38631;47.572;10.704;2023-02-01T09:18:52;0.60;;;0.50;;
52734;SDS011;38631;47.572;10.704;2023-02-01T09:21:18;0.93;;;0.63;;
52734;SDS011;38631;47.572;10.704;2023-02-01T09:23:43;0.90;;;0.60;;
52734;SDS011;38631;47.572;10.704;2023-02-01T09:26:08;0.90;;;0.60;;
52734;SDS011;38631;47.572;10.704;2023-02-01T09:28:34;0.90;;;0.60;;
52734;SDS011;38631;47.572;10.704;2023-02-01T09:30:59;1.95;;;0.85;;
52734;SDS011;38631;47.572;10.704;2023-02-01T09:33:26;2.08;;;0.90;;
52734;SDS011;38631;47.572;10.704;2023-02-01T09:36:10;1.40;;;0.52;;
52734;SDS011;38631;47.572;10.704;2023-02-01T09:38:36;0.60;;;0.60;;
52734;SDS011;38631;47.572;10.704;2023-02-01T09:41:06;3.30;;;0.60;;
52734;SDS011;38631;47.572;10.704;2023-02-01T09:43:53;1.05;;;0.50;;
52734;SDS011;38631;47.572;10.704;2023-02-01T09:46:28;1.20;;;0.38;;
52734;SDS011;38631;47.572;10.704;2023-02-01T09:48:56;0.52;;;0.30;;
52734;SDS011;38631;47.572;10.704;2023-02-01T09:51:27;0.68;;;0.40;;
52734;SDS011;38631;47.572;10.704;2023-02-01T09:56:45;1.00;;;0.50;;
52734;SDS011;38631;47.572;10.704;2023-02-01T10:01:44;0.60;;;0.40;;
52734;SDS011;38631;47.572;10.704;2023-02-01T10:04:10;2.88;;;0.57;;
52734;SDS011;38631;47.572;10.704;2023-02-01T10:17:34;0.82;;;0.55;;
52734;SDS011;38631;47.572;10.704;2023-02-01T10:22:41;0.50;;;0.40;;
52734;SDS011;38631;47.572;10.704;2023-02-01T10:27:48;1.60;;;0.60;;
52734;SDS011;38631;47.572;10.704;2023-02-01T10:30:21;1.20;;;0.70;;
52734;SDS011;38631;47.572;10.704;2023-02-01T10:32:49;1.02;;;0.60;;
52734;SDS011;38631;47.572;10.704;2023-02-01T10:35:33;3.10;;;0.65;;
52734;SDS011;38631;47.572;10.704;2023-02-01T10:38:01;1.30;;;0.75;;
52734;SDS011;38631;47.572;10.704;2023-02-01T10:40:28;2.65;;;0.70;;
52734;SDS011;38631;47.572;10.704;2023-02-01T10:42:54;1.67;;;0.60;;
52734;SDS011;38631;47.572;10.704;2023-02-01T10:45:27;1.10;;;0.70;;
52734;SDS011;38631;47.572;10.704;2023-02-01T10:47:55;1.00;;;0.80;;
52734;SDS011;38631;47.572;10.704;2023-02-01T10:53:18;1.63;;;0.75;;
52734;SDS011;38631;47.572;10.704;2023-02-01T10:55:53;3.85;;;0.68;;
52734;SDS011;38631;47.572;10.704;2023-02-01T10:58:26;1.53;;;0.60;;
52734;SDS011;38631;47.572;10.704;2023-02-01T11:00:54;2.05;;;0.77;;
52734;SDS011;38631;47.572;10.704;2023-02-01T11:03:31;1.33;;;0.70;;
52734;SDS011;38631;47.572;10.704;2023-02-01T11:06:37;2.28;;;1.00;;
52734;SDS011;38631;47.572;10.704;2023-02-01T11:11:32;1.10;;;0.80;;
52734;SDS011;38631;47.572;10.704;2023-02-01T11:13:58;1.60;;;0.68;;
52734;SDS011;38631;47.572;10.704;2023-02-01T11:17:16;1.60;;;0.60;;
52734;SDS011;38631;47.572;10.704;2023-02-01T11:19:22;1.58;;;0.60;;
52734;SDS011;38631;47.572;10.704;2023-02-01T11:21:49;1.42;;;0.80;;
52734;SDS011;38631;47.572;10.704;2023-02-01T11:24:20;2.30;;;0.75;;
52734;SDS011;38631;47.572;10.704;2023-02-01T11:26:49;2.33;;;0.80;;
52734;SDS011;38631;47.572;10.704;2023-02-01T11:29:17;3.20;;;1.25;;
52734;SDS011;38631;47.572;10.704;2023-02-01T11:31:47;1.50;;;1.05;;
52734;SDS011;38631;47.572;10.704;2023-02-01T11:34:18;2.63;;;0.85;;
52734;SDS011;38631;47.572;10.704;2023-02-01T11:36:48;1.27;;;0.82;;
52734;SDS011;38631;47.572;10.704;2023-02-01T11:41:44;1.10;;;0.75;;
52734;SDS011;38631;47.572;10.704;2023-02-01T11:44:22;1.98;;;0.75;;
52734;SDS011;38631;47.572;10.704;2023-02-01T11:46:55;1.38;;;0.60;;
52734;SDS011;38631;47.572;10.704;2023-02-01T11:49:23;2.78;;;0.75;;
52734;SDS011;38631;47.572;10.704;2023-02-01T11:51:59;2.13;;;1.02;;
52734;SDS011;38631;47.572;10.704;2023-02-01T12:08:51;1.98;;;0.70;;
52734;SDS011;38631;47.572;10.704;2023-02-01T12:11:42;0.70;;;0.50;;
52734;SDS011;38631;47.572;10.704;2023-02-01T12:22:29;0.95;;;0.60;;
52734;SDS011;38631;47.572;10.704;2023-02-01T12:28:00;2.95;;;0.70;;
52734;SDS011;38631;47.572;10.704;2023-02-01T12:31:12;2.38;;;0.60;;
52734;SDS011;38631;47.572;10.704;2023-02-01T12:39:06;1.90;;;0.50;;
52734;SDS011;38631;47.572;10.704;2023-02-01T12:46:54;2.78;;;1.02;;
52734;SDS011;38631;47.572;10.704;2023-02-01T12:49:34;4.65;;;0.80;;
52734;SDS011;38631;47.572;10.704;2023-02-01T12:52:09;0.95;;;0.68;;
52734;SDS011;38631;47.572;10.704;2023-02-01T12:54:57;0.93;;;0.60;;
52734;SDS011;38631;47.572;10.704;2023-02-01T13:00:01;1.50;;;0.50;;
52734;SDS011;38631;47.572;10.704;2023-02-01T13:02:44;0.80;;;0.50;;
52734;SDS011;38631;47.572;10.704;2023-02-01T13:05:18;1.30;;;0.80;;
52734;SDS011;38631;47.572;10.704;2023-02-01T13:10:45;1.98;;;0.70;;
52734;SDS011;38631;47.572;10.704;2023-02-01T13:15:48;1.45;;;0.95;;
52734;SDS011;38631;47.572;10.704;2023-02-01T13:18:22;2.25;;;1.70;;
52734;SDS011;38631;47.572;10.704;2023-02-01T13:23:36;2.90;;;1.27;;
52734;SDS011;38631;47.572;10.704;2023-02-01T13:26:04;2.53;;;0.77;;
52734;SDS011;38631;47.572;10.704;2023-02-01T13:33:55;0.95;;;0.60;;
52734;SDS011;38631;47.572;10.704;2023-02-01T13:36:54;2.90;;;1.20;;
52734;SDS011;38631;47.572;10.704;2023-02-01T13:42:27;1.38;;;0.98;;
52734;SDS011;38631;47.572;10.704;2023-02-01T13:44:57;1.00;;;0.57;;
52734;SDS011;38631;47.572;10.704;2023-02-01T13:49:52;0.80;;;0.50;;
52734;SDS011;38631;47.572;10.704;2023-02-01T13:55:13;2.78;;;1.83;;
52734;SDS011;38631;47.572;10.704;2023-02-01T13:57:49;3.00;;;1.30;;
52734;SDS011;38631;47.572;10.704;2023-02-01T14:13:34;2.63;;;1.48;;
52734;SDS011;38631;47.572;10.704;2023-02-01T14:16:10;2.30;;;1.75;;
52734;SDS011;38631;47.572;10.704;2023-02-01T14:23:40;4.13;;;2.28;;
52734;SDS011;38631;47.572;10.704;2023-02-01T14:26:08;6.95;;;4.10;;
52734;SDS011;38631;47.572;10.704;2023-02-01T14:28:38;5.28;;;2.55;;
52734;SDS011;38631;47.572;10.704;2023-02-01T14:31:17;3.40;;;1.52;;
52734;SDS011;38631;47.572;10.704;2023-02-01T14:33:57;8.32;;;4.05;;
52734;SDS011;38631;47.572;10.704;2023-02-01T14:36:25;28.33;;;12.73;;
52734;SDS011;38631;47.572;10.704;2023-02-01T14:38:51;14.48;;;7.68;;
52734;SDS011;38631;47.572;10.704;2023-02-01T14:44:13;3.17;;;1.80;;
52734;SDS011;38631;47.572;10.704;2023-02-01T14:47:26;2.88;;;2.00;;
52734;SDS011;38631;47.572;10.704;2023-02-01T14:49:30;4.53;;;2.30;;
52734;SDS011;38631;47.572;10.704;2023-02-01T14:51:59;2.95;;;1.45;;
52734;SDS011;38631;47.572;10.704;2023-02-01T14:54:29;6.22;;;1.90;;
52734;SDS011;38631;47.572;10.704;2023-02-01T14:56:55;4.93;;;1.40;;
52734;SDS011;38631;47.572;10.704;2023-02-01T14:59:21;1.98;;;1.10;;
52734;SDS011;38631;47.572;10.704;2023-02-01T15:01:50;1.83;;;1.30;;
52734;SDS011;38631;47.572;10.704;2023-02-01T15:04:19;2.25;;;1.10;;
52734;SDS011;38631;47.572;10.704;2023-02-01T15:09:32;2.10;;;1.35;;
52734;SDS011;38631;47.572;10.704;2023-02-01T15:14:41;1.60;;;1.15;;
52734;SDS011;38631;47.572;10.704;2023-02-01T15:17:18;2.55;;;1.30;;
52734;SDS011;38631;47.572;10.704;2023-02-01T15:19:53;4.15;;;1.10;;
52734;SDS011;38631;47.572;10.704;2023-02-01T15:22:19;2.17;;;1.17;;
52734;SDS011;38631;47.572;10.704;2023-02-01T15:24:51;2.42;;;1.10;;
52734;SDS011;38631;47.572;10.704;2023-02-01T15:27:18;2.55;;;1.10;;
52734;SDS011;38631;47.572;10.704;2023-02-01T15:29:43;1.83;;;1.10;;
52734;SDS011;38631;47.572;10.704;2023-02-01T15:32:26;3.35;;;1.40;;
52734;SDS011;38631;47.572;10.704;2023-02-01T15:34:57;8.07;;;2.40;;
52734;SDS011;38631;47.572;10.704;2023-02-01T15:37:25;4.10;;;2.80;;
52734;SDS011;38631;47.572;10.704;2023-02-01T15:40:04;3.15;;;1.65;;
52734;SDS011;38631;47.572;10.704;2023-02-01T15:42:55;3.03;;;1.58;;
52734;SDS011;38631;47.572;10.704;2023-02-01T15:45:25;2.30;;;1.77;;
52734;SDS011;38631;47.572;10.704;2023-02-01T15:47:53;3.63;;;2.30;;
52734;SDS011;38631;47.572;10.704;2023-02-01T15:50:20;2.55;;;1.58;;
52734;SDS011;38631;47.572;10.704;2023-02-01T15:52:48;5.32;;;1.73;;
52734;SDS011;38631;47.572;10.704;2023-02-01T15:58:06;2.42;;;1.88;;
52734;SDS011;38631;47.572;10.704;2023-02-01T16:00:39;5.05;;;2.30;;
52734;SDS011;38631;47.572;10.704;2023-02-01T16:03:23;8.20;;;2.95;;
52734;SDS011;38631;47.572;10.704;2023-02-01T16:06:00;4.68;;;2.90;;
52734;SDS011;38631;47.572;10.704;2023-02-01T16:08:28;8.45;;;4.47;;
52734;SDS011;38631;47.572;10.704;2023-02-01T16:11:00;10.55;;;4.65;;
52734;SDS011;38631;47.572;10.704;2023-02-01T16:13:38;9.43;;;4.53;;
52734;SDS011;38631;47.572;10.704;2023-02-01T16:16:04;7.68;;;3.30;;
52734;SDS011;38631;47.572;10.704;2023-02-01T16:18:32;8.43;;;4.07;;
52734;SDS011;38631;47.572;10.704;2023-02-01T16:20:58;10.35;;;4.18;;
52734;SDS011;38631;47.572;10.704;2023-02-01T16:23:23;5.60;;;2.28;;
52734;SDS011;38631;47.572;10.704;2023-02-01T16:25:48;6.85;;;2.65;;
52734;SDS011;38631;47.572;10.704;2023-02-01T16:28:14;6.20;;;2.35;;
52734;SDS011;38631;47.572;10.704;2023-02-01T16:30:39;7.72;;;3.20;;
52734;SDS011;38631;47.572;10.704;2023-02-01T16:33:04;7.13;;;2.08;;
52734;SDS011;38631;47.572;10.704;2023-02-01T16:35:32;4.97;;;2.42;;
52734;SDS011;38631;47.572;10.704;2023-02-01T16:38:02;10.00;;;2.58;;
52734;SDS011;38631;47.572;10.704;2023-02-01T16:40:37;3.33;;;1.90;;
52734;SDS011;38631;47.572;10.704;2023-02-01T16:43:14;6.85;;;2.42;;
52734;SDS011;38631;47.572;10.704;2023-02-01T16:45:42;5.53;;;2.03;;
52734;SDS011;38631;47.572;10.704;2023-02-01T16:48:16;6.25;;;2.13;;
52734;SDS011;38631;47.572;10.704;2023-02-01T16:50:45;4.88;;;2.22;;
52734;SDS011;38631;47.572;10.704;2023-02-01T16:53:14;4.32;;;1.92;;
52734;SDS011;38631;47.572;10.704;2023-02-01T16:55:42;4.40;;;2.33;;
52734;SDS011;38631;47.572;10.704;2023-02-01T16:58:08;8.32;;;2.42;;
52734;SDS011;38631;47.572;10.704;2023-02-01T17:00:34;5.85;;;1.83;;
52734;SDS011;38631;47.572;10.704;2023-02-01T17:03:01;4.57;;;1.80;;
52734;SDS011;38631;47.572;10.704;2023-02-01T17:05:27;7.00;;;3.08;;
52734;SDS011;38631;47.572;10.704;2023-02-01T17:08:01;3.97;;;1.80;;
52734;SDS011;38631;47.572;10.704;2023-02-01T17:10:30;6.38;;;1.98;;
52734;SDS011;38631;47.572;10.704;2023-02-01T17:12:55;8.52;;;2.97;;
52734;SDS011;38631;47.572;10.704;2023-02-01T17:15:26;4.40;;;2.20;;
52734;SDS011;38631;47.572;10.704;2023-02-01T17:17:56;5.65;;;2.83;;
52734;SDS011;38631;47.572;10.704;2023-02-01T17:20:23;3.88;;;2.22;;
52734;SDS011;38631;47.572;10.704;2023-02-01T17:22:51;4.25;;;2.30;;
52734;SDS011;38631;47.572;10.704;2023-02-01T17:25:18;7.63;;;2.08;;
52734;SDS011;38631;47.572;10.704;2023-02-01T17:27:45;5.70;;;2.20;;